Etusivu
METAR-TAF:

METAR-TAF

Lentoasemat :

Perry Lefors Field

Pampa, Texas, Yhdysvallat

Leveyspiiri: 35-36-46N, Pituuspiiri: 100-59-46W, korkeus merenpinnasta: 989 m

Tämänhetkinen sää

Tämä raportti tehtiin 17 minuuttia sitten, kello 02.15 UTC
Tuuli 10 kn etelästä/kaakosta puuskistuen 21 kn:hen, vaihdellen idän ja etelän/lounaan välillä
Lämpötila 21°C
Kosteus 38%
Ilmanpaine 1005 hPa
Näkyvyys: 16.1 km
Hajanaisia pilviä 6500 ft:n korkeudessa
Hajonneita pilviä 9000 ft:n korkeudessa
Pilvistä 11000 ft:n korkeudessa
ukkosta näköpiirissä, tihkusadetta

METAR: KPPA 250215Z AUTO 15010G21KT 100V200 10SM VCTSDZ SCT065 BKN090 OVC110 21/06 A2968 RMK AO2 LTG DSNT E THRU S T02110064

Aika: 21:32 (02:32 UTC)


TAF: puuttuu

Säähavainnot ja -ennusteet yli 4000 lentoasemalta (METAR- ja TAF-raportit).

Käytössä olevat sääasemat on merkitty karttaan keltaisilla ja punaisilla pisteillä.

Aseta hiiri pisteen päälle nähdäksesi sääaseman nimen.

Klikkaa sitten nähdäksesi säähavainnot ja -ennusteet.

Kartan vaihtaminen: klikkaa mustalla rastilla varustettuja vihreitä pisteitä, niin voit zoomata sisään; viivalla varustettua vihreää pistettä, niin voit zoomata ulos tai vihreitä nuolia, niin pääset viereisille kartoille.


METAR-TAF: